sensor_id;sensor_type;location;lat;lon;timestamp;P1;durP1;ratioP1;P2;durP2;ratioP2
7013;SDS011;3547;50.774;12.918;2023-11-18T00:00:34;2.53;;;2.03;;
7013;SDS011;3547;50.774;12.918;2023-11-18T00:03:00;5.10;;;2.30;;
7013;SDS011;3547;50.774;12.918;2023-11-18T00:05:26;3.83;;;2.40;;
7013;SDS011;3547;50.774;12.918;2023-11-18T00:07:52;2.87;;;2.17;;
7013;SDS011;3547;50.774;12.918;2023-11-18T00:10:19;3.43;;;2.63;;
7013;SDS011;3547;50.774;12.918;2023-11-18T00:12:45;2.30;;;2.10;;
7013;SDS011;3547;50.774;12.918;2023-11-18T00:15:12;6.67;;;2.70;;
7013;SDS011;3547;50.774;12.918;2023-11-18T00:17:38;3.97;;;2.50;;
7013;SDS011;3547;50.774;12.918;2023-11-18T00:20:04;4.70;;;2.97;;
7013;SDS011;3547;50.774;12.918;2023-11-18T00:22:37;3.87;;;2.53;;
7013;SDS011;3547;50.774;12.918;2023-11-18T00:25:05;3.80;;;3.00;;
7013;SDS011;3547;50.774;12.918;2023-11-18T00:27:33;3.67;;;2.70;;
7013;SDS011;3547;50.774;12.918;2023-11-18T00:30:02;2.97;;;2.27;;
7013;SDS011;3547;50.774;12.918;2023-11-18T00:32:31;4.57;;;2.10;;
7013;SDS011;3547;50.774;12.918;2023-11-18T00:34:57;5.27;;;2.40;;
7013;SDS011;3547;50.774;12.918;2023-11-18T00:37:23;3.30;;;2.30;;
7013;SDS011;3547;50.774;12.918;2023-11-18T00:39:49;3.50;;;2.67;;
7013;SDS011;3547;50.774;12.918;2023-11-18T00:42:16;3.43;;;2.73;;
7013;SDS011;3547;50.774;12.918;2023-11-18T00:44:42;3.20;;;2.27;;
7013;SDS011;3547;50.774;12.918;2023-11-18T00:47:08;3.03;;;2.27;;
7013;SDS011;3547;50.774;12.918;2023-11-18T00:49:34;3.17;;;2.63;;
7013;SDS011;3547;50.774;12.918;2023-11-18T00:52:00;3.40;;;2.83;;
7013;SDS011;3547;50.774;12.918;2023-11-18T00:54:26;4.13;;;3.10;;
7013;SDS011;3547;50.774;12.918;2023-11-18T00:56:53;4.17;;;2.60;;
7013;SDS011;3547;50.774;12.918;2023-11-18T00:59:19;6.07;;;2.70;;
7013;SDS011;3547;50.774;12.918;2023-11-18T01:01:45;3.13;;;2.47;;
7013;SDS011;3547;50.774;12.918;2023-11-18T01:04:11;3.33;;;2.53;;
7013;SDS011;3547;50.774;12.918;2023-11-18T01:06:38;4.23;;;2.50;;
7013;SDS011;3547;50.774;12.918;2023-11-18T01:09:04;4.60;;;2.97;;
7013;SDS011;3547;50.774;12.918;2023-11-18T01:11:32;3.07;;;2.33;;
7013;SDS011;3547;50.774;12.918;2023-11-18T01:13:58;3.63;;;2.60;;
7013;SDS011;3547;50.774;12.918;2023-11-18T01:16:24;3.10;;;2.30;;
7013;SDS011;3547;50.774;12.918;2023-11-18T01:18:50;3.20;;;2.87;;
7013;SDS011;3547;50.774;12.918;2023-11-18T01:21:16;3.70;;;2.53;;
7013;SDS011;3547;50.774;12.918;2023-11-18T01:23:43;4.57;;;3.13;;
7013;SDS011;3547;50.774;12.918;2023-11-18T01:26:10;3.50;;;2.73;;
7013;SDS011;3547;50.774;12.918;2023-11-18T01:28:38;4.57;;;3.00;;
7013;SDS011;3547;50.774;12.918;2023-11-18T01:31:09;4.00;;;2.40;;
7013;SDS011;3547;50.774;12.918;2023-11-18T01:33:35;3.93;;;2.57;;
7013;SDS011;3547;50.774;12.918;2023-11-18T01:36:03;2.90;;;2.43;;
7013;SDS011;3547;50.774;12.918;2023-11-18T01:38:29;3.90;;;2.87;;
7013;SDS011;3547;50.774;12.918;2023-11-18T01:40:56;2.37;;;1.87;;
7013;SDS011;3547;50.774;12.918;2023-11-18T01:43:22;3.37;;;2.60;;
7013;SDS011;3547;50.774;12.918;2023-11-18T01:45:48;3.43;;;2.90;;
7013;SDS011;3547;50.774;12.918;2023-11-18T01:48:14;2.87;;;2.40;;
7013;SDS011;3547;50.774;12.918;2023-11-18T01:50:41;2.43;;;2.23;;
7013;SDS011;3547;50.774;12.918;2023-11-18T01:53:10;2.97;;;2.03;;
7013;SDS011;3547;50.774;12.918;2023-11-18T01:55:40;4.73;;;2.77;;
7013;SDS011;3547;50.774;12.918;2023-11-18T01:58:07;2.83;;;2.53;;
7013;SDS011;3547;50.774;12.918;2023-11-18T02:00:35;3.57;;;2.57;;
7013;SDS011;3547;50.774;12.918;2023-11-18T02:03:07;5.13;;;2.97;;
7013;SDS011;3547;50.774;12.918;2023-11-18T02:05:34;3.20;;;2.70;;
7013;SDS011;3547;50.774;12.918;2023-11-18T02:11:14;2.57;;;2.37;;
7013;SDS011;3547;50.774;12.918;2023-11-18T02:13:50;5.60;;;3.10;;
7013;SDS011;3547;50.774;12.918;2023-11-18T02:16:20;3.47;;;2.67;;
7013;SDS011;3547;50.774;12.918;2023-11-18T02:18:49;3.17;;;2.67;;
7013;SDS011;3547;50.774;12.918;2023-11-18T02:21:19;5.00;;;2.83;;
7013;SDS011;3547;50.774;12.918;2023-11-18T02:23:47;3.93;;;3.07;;
7013;SDS011;3547;50.774;12.918;2023-11-18T02:26:20;3.20;;;2.63;;
7013;SDS011;3547;50.774;12.918;2023-11-18T02:28:49;3.60;;;2.93;;
7013;SDS011;3547;50.774;12.918;2023-11-18T02:31:17;5.37;;;2.40;;
7013;SDS011;3547;50.774;12.918;2023-11-18T02:36:49;3.73;;;3.10;;
7013;SDS011;3547;50.774;12.918;2023-11-18T02:39:20;4.23;;;3.20;;
7013;SDS011;3547;50.774;12.918;2023-11-18T02:41:51;4.80;;;2.63;;
7013;SDS011;3547;50.774;12.918;2023-11-18T02:44:22;9.63;;;3.77;;
7013;SDS011;3547;50.774;12.918;2023-11-18T02:46:50;4.70;;;3.50;;
7013;SDS011;3547;50.774;12.918;2023-11-18T02:49:17;5.60;;;3.63;;
7013;SDS011;3547;50.774;12.918;2023-11-18T02:51:43;3.73;;;3.23;;
7013;SDS011;3547;50.774;12.918;2023-11-18T02:54:13;4.23;;;3.27;;
7013;SDS011;3547;50.774;12.918;2023-11-18T02:56:39;5.37;;;2.70;;
7013;SDS011;3547;50.774;12.918;2023-11-18T02:59:05;3.80;;;3.17;;
7013;SDS011;3547;50.774;12.918;2023-11-18T03:01:32;4.43;;;3.00;;
7013;SDS011;3547;50.774;12.918;2023-11-18T03:03:59;4.27;;;3.03;;
7013;SDS011;3547;50.774;12.918;2023-11-18T03:06:26;7.97;;;3.57;;
7013;SDS011;3547;50.774;12.918;2023-11-18T03:08:52;3.27;;;2.97;;
7013;SDS011;3547;50.774;12.918;2023-11-18T03:11:19;3.53;;;2.90;;
7013;SDS011;3547;50.774;12.918;2023-11-18T03:13:45;4.50;;;3.30;;
7013;SDS011;3547;50.774;12.918;2023-11-18T03:16:11;3.57;;;2.97;;
7013;SDS011;3547;50.774;12.918;2023-11-18T03:18:39;7.77;;;3.60;;
7013;SDS011;3547;50.774;12.918;2023-11-18T03:21:06;3.37;;;2.87;;
7013;SDS011;3547;50.774;12.918;2023-11-18T03:23:40;4.23;;;3.27;;
7013;SDS011;3547;50.774;12.918;2023-11-18T03:26:07;4.60;;;3.57;;
7013;SDS011;3547;50.774;12.918;2023-11-18T03:28:33;4.47;;;3.47;;
7013;SDS011;3547;50.774;12.918;2023-11-18T03:31:05;3.57;;;2.90;;
7013;SDS011;3547;50.774;12.918;2023-11-18T03:33:32;3.33;;;2.67;;
7013;SDS011;3547;50.774;12.918;2023-11-18T03:35:58;5.50;;;3.30;;
7013;SDS011;3547;50.774;12.918;2023-11-18T03:38:25;4.83;;;3.57;;
7013;SDS011;3547;50.774;12.918;2023-11-18T03:40:53;4.40;;;3.30;;
7013;SDS011;3547;50.774;12.918;2023-11-18T03:43:19;3.90;;;3.20;;
7013;SDS011;3547;50.774;12.918;2023-11-18T03:45:45;3.20;;;2.90;;
7013;SDS011;3547;50.774;12.918;2023-11-18T03:48:11;5.57;;;3.30;;
7013;SDS011;3547;50.774;12.918;2023-11-18T03:50:40;2.87;;;2.57;;
7013;SDS011;3547;50.774;12.918;2023-11-18T03:53:07;4.87;;;3.53;;
7013;SDS011;3547;50.774;12.918;2023-11-18T03:55:33;4.20;;;3.30;;
7013;SDS011;3547;50.774;12.918;2023-11-18T03:57:59;6.00;;;3.90;;
7013;SDS011;3547;50.774;12.918;2023-11-18T04:00:25;5.20;;;3.10;;
7013;SDS011;3547;50.774;12.918;2023-11-18T04:02:58;5.40;;;3.70;;
7013;SDS011;3547;50.774;12.918;2023-11-18T04:05:25;4.87;;;3.33;;
7013;SDS011;3547;50.774;12.918;2023-11-18T04:07:51;5.57;;;3.03;;
7013;SDS011;3547;50.774;12.918;2023-11-18T04:10:17;5.87;;;3.80;;
7013;SDS011;3547;50.774;12.918;2023-11-18T04:12:45;4.07;;;3.27;;
7013;SDS011;3547;50.774;12.918;2023-11-18T04:15:13;4.70;;;3.77;;
7013;SDS011;3547;50.774;12.918;2023-11-18T04:17:41;6.40;;;3.50;;
7013;SDS011;3547;50.774;12.918;2023-11-18T04:20:09;4.67;;;3.33;;
7013;SDS011;3547;50.774;12.918;2023-11-18T04:22:40;5.30;;;3.63;;
7013;SDS011;3547;50.774;12.918;2023-11-18T04:25:10;4.80;;;3.70;;
7013;SDS011;3547;50.774;12.918;2023-11-18T04:27:37;5.23;;;4.03;;
7013;SDS011;3547;50.774;12.918;2023-11-18T04:30:04;4.57;;;3.73;;
7013;SDS011;3547;50.774;12.918;2023-11-18T04:32:31;4.50;;;3.43;;
7013;SDS011;3547;50.774;12.918;2023-11-18T04:34:58;6.27;;;3.87;;
7013;SDS011;3547;50.774;12.918;2023-11-18T04:37:36;7.90;;;4.00;;
7013;SDS011;3547;50.774;12.918;2023-11-18T04:40:03;6.30;;;3.77;;
7013;SDS011;3547;50.774;12.918;2023-11-18T04:42:29;5.77;;;4.00;;
7013;SDS011;3547;50.774;12.918;2023-11-18T04:44:56;4.90;;;3.63;;
7013;SDS011;3547;50.774;12.918;2023-11-18T04:47:23;5.60;;;4.10;;
7013;SDS011;3547;50.774;12.918;2023-11-18T04:49:50;5.67;;;3.73;;
7013;SDS011;3547;50.774;12.918;2023-11-18T04:52:17;5.37;;;3.83;;
7013;SDS011;3547;50.774;12.918;2023-11-18T04:54:44;7.20;;;3.97;;
7013;SDS011;3547;50.774;12.918;2023-11-18T04:57:13;5.33;;;3.90;;
7013;SDS011;3547;50.774;12.918;2023-11-18T04:59:41;7.20;;;4.03;;
7013;SDS011;3547;50.774;12.918;2023-11-18T05:02:09;5.23;;;3.70;;
7013;SDS011;3547;50.774;12.918;2023-11-18T05:04:35;5.27;;;4.03;;
7013;SDS011;3547;50.774;12.918;2023-11-18T05:07:01;7.70;;;3.93;;
7013;SDS011;3547;50.774;12.918;2023-11-18T05:09:28;6.30;;;4.27;;
7013;SDS011;3547;50.774;12.918;2023-11-18T05:11:54;12.30;;;4.13;;
7013;SDS011;3547;50.774;12.918;2023-11-18T05:14:20;4.47;;;3.20;;
7013;SDS011;3547;50.774;12.918;2023-11-18T05:16:46;5.47;;;3.93;;
7013;SDS011;3547;50.774;12.918;2023-11-18T05:19:13;4.73;;;3.43;;
7013;SDS011;3547;50.774;12.918;2023-11-18T05:21:39;4.57;;;3.70;;
7013;SDS011;3547;50.774;12.918;2023-11-18T05:24:06;9.13;;;3.70;;
7013;SDS011;3547;50.774;12.918;2023-11-18T05:26:32;5.60;;;3.53;;
7013;SDS011;3547;50.774;12.918;2023-11-18T05:29:00;5.33;;;3.57;;
7013;SDS011;3547;50.774;12.918;2023-11-18T05:31:27;6.40;;;4.13;;
7013;SDS011;3547;50.774;12.918;2023-11-18T05:33:54;5.57;;;3.97;;
7013;SDS011;3547;50.774;12.918;2023-11-18T05:36:21;8.50;;;4.20;;
7013;SDS011;3547;50.774;12.918;2023-11-18T05:38:55;6.87;;;4.43;;
7013;SDS011;3547;50.774;12.918;2023-11-18T05:41:22;5.27;;;3.80;;
7013;SDS011;3547;50.774;12.918;2023-11-18T05:43:55;4.53;;;3.77;;
7013;SDS011;3547;50.774;12.918;2023-11-18T05:46:25;9.67;;;3.93;;
7013;SDS011;3547;50.774;12.918;2023-11-18T05:48:55;5.83;;;3.93;;
7013;SDS011;3547;50.774;12.918;2023-11-18T05:51:22;6.53;;;4.53;;
7013;SDS011;3547;50.774;12.918;2023-11-18T05:53:49;5.70;;;3.97;;
7013;SDS011;3547;50.774;12.918;2023-11-18T05:56:17;6.63;;;3.97;;
7013;SDS011;3547;50.774;12.918;2023-11-18T05:58:44;8.67;;;4.50;;
7013;SDS011;3547;50.774;12.918;2023-11-18T06:01:12;6.63;;;4.90;;
7013;SDS011;3547;50.774;12.918;2023-11-18T06:03:38;5.70;;;4.40;;
7013;SDS011;3547;50.774;12.918;2023-11-18T06:08:33;6.67;;;4.90;;
7013;SDS011;3547;50.774;12.918;2023-11-18T06:11:00;7.90;;;4.30;;
7013;SDS011;3547;50.774;12.918;2023-11-18T06:13:30;7.33;;;4.30;;
7013;SDS011;3547;50.774;12.918;2023-11-18T06:15:57;6.43;;;4.53;;
7013;SDS011;3547;50.774;12.918;2023-11-18T06:18:24;7.77;;;4.53;;
7013;SDS011;3547;50.774;12.918;2023-11-18T06:20:50;6.50;;;4.37;;
7013;SDS011;3547;50.774;12.918;2023-11-18T06:23:16;7.57;;;4.70;;
7013;SDS011;3547;50.774;12.918;2023-11-18T06:25:44;6.93;;;4.40;;
7013;SDS011;3547;50.774;12.918;2023-11-18T06:28:11;9.37;;;4.40;;
7013;SDS011;3547;50.774;12.918;2023-11-18T06:30:37;8.00;;;4.67;;
7013;SDS011;3547;50.774;12.918;2023-11-18T06:33:04;5.87;;;4.47;;
7013;SDS011;3547;50.774;12.918;2023-11-18T06:35:30;7.30;;;4.53;;
7013;SDS011;3547;50.774;12.918;2023-11-18T06:37:56;6.57;;;4.83;;
7013;SDS011;3547;50.774;12.918;2023-11-18T06:40:24;14.00;;;4.87;;
7013;SDS011;3547;50.774;12.918;2023-11-18T06:42:52;6.83;;;4.93;;
7013;SDS011;3547;50.774;12.918;2023-11-18T06:45:26;7.43;;;4.83;;
7013;SDS011;3547;50.774;12.918;2023-11-18T06:47:53;6.27;;;4.17;;
7013;SDS011;3547;50.774;12.918;2023-11-18T06:50:22;6.60;;;4.57;;
7013;SDS011;3547;50.774;12.918;2023-11-18T06:52:50;7.93;;;4.47;;
7013;SDS011;3547;50.774;12.918;2023-11-18T06:55:16;9.03;;;5.07;;
7013;SDS011;3547;50.774;12.918;2023-11-18T06:57:42;7.53;;;4.87;;
7013;SDS011;3547;50.774;12.918;2023-11-18T07:00:10;7.07;;;4.53;;
7013;SDS011;3547;50.774;12.918;2023-11-18T07:02:39;10.00;;;5.17;;
7013;SDS011;3547;50.774;12.918;2023-11-18T07:05:06;6.77;;;5.20;;
7013;SDS011;3547;50.774;12.918;2023-11-18T07:07:32;7.50;;;5.40;;
7013;SDS011;3547;50.774;12.918;2023-11-18T07:09:59;7.83;;;5.17;;
7013;SDS011;3547;50.774;12.918;2023-11-18T07:12:25;7.00;;;4.87;;
7013;SDS011;3547;50.774;12.918;2023-11-18T07:14:51;7.50;;;4.70;;
7013;SDS011;3547;50.774;12.918;2023-11-18T07:17:19;7.87;;;4.90;;
7013;SDS011;3547;50.774;12.918;2023-11-18T07:19:45;8.63;;;5.30;;
7013;SDS011;3547;50.774;12.918;2023-11-18T07:22:11;7.63;;;4.20;;
7013;SDS011;3547;50.774;12.918;2023-11-18T07:24:38;6.93;;;4.77;;
7013;SDS011;3547;50.774;12.918;2023-11-18T07:27:04;6.37;;;4.70;;
7013;SDS011;3547;50.774;12.918;2023-11-18T07:29:31;7.93;;;4.60;;
7013;SDS011;3547;50.774;12.918;2023-11-18T07:31:58;7.53;;;4.33;;
7013;SDS011;3547;50.774;12.918;2023-11-18T07:34:24;6.53;;;4.53;;
7013;SDS011;3547;50.774;12.918;2023-11-18T07:36:51;6.50;;;4.33;;
7013;SDS011;3547;50.774;12.918;2023-11-18T07:39:17;7.60;;;4.20;;
7013;SDS011;3547;50.774;12.918;2023-11-18T07:41:50;8.27;;;5.10;;
7013;SDS011;3547;50.774;12.918;2023-11-18T07:44:17;7.40;;;4.90;;
7013;SDS011;3547;50.774;12.918;2023-11-18T07:46:43;7.13;;;4.87;;
7013;SDS011;3547;50.774;12.918;2023-11-18T07:49:09;6.93;;;4.50;;
7013;SDS011;3547;50.774;12.918;2023-11-18T07:51:35;7.77;;;5.07;;
7013;SDS011;3547;50.774;12.918;2023-11-18T07:54:02;5.60;;;4.27;;
7013;SDS011;3547;50.774;12.918;2023-11-18T07:56:29;9.13;;;4.77;;
7013;SDS011;3547;50.774;12.918;2023-11-18T07:58:57;7.90;;;4.70;;
7013;SDS011;3547;50.774;12.918;2023-11-18T08:01:23;6.97;;;5.20;;
7013;SDS011;3547;50.774;12.918;2023-11-18T08:03:51;6.40;;;4.43;;
7013;SDS011;3547;50.774;12.918;2023-11-18T08:06:18;7.23;;;4.33;;
7013;SDS011;3547;50.774;12.918;2023-11-18T08:08:46;7.37;;;4.50;;
7013;SDS011;3547;50.774;12.918;2023-11-18T08:11:14;8.53;;;4.97;;
7013;SDS011;3547;50.774;12.918;2023-11-18T08:13:40;4.93;;;3.97;;
7013;SDS011;3547;50.774;12.918;2023-11-18T08:16:07;5.67;;;4.17;;
7013;SDS011;3547;50.774;12.918;2023-11-18T08:18:34;6.47;;;4.27;;
7013;SDS011;3547;50.774;12.918;2023-11-18T08:21:01;6.73;;;4.37;;
7013;SDS011;3547;50.774;12.918;2023-11-18T08:23:28;5.20;;;4.27;;
7013;SDS011;3547;50.774;12.918;2023-11-18T08:25:55;5.70;;;4.33;;
7013;SDS011;3547;50.774;12.918;2023-11-18T08:28:21;6.27;;;4.33;;
7013;SDS011;3547;50.774;12.918;2023-11-18T08:30:47;10.13;;;5.03;;
7013;SDS011;3547;50.774;12.918;2023-11-18T08:33:14;7.83;;;5.03;;
7013;SDS011;3547;50.774;12.918;2023-11-18T08:35:40;4.77;;;3.93;;
7013;SDS011;3547;50.774;12.918;2023-11-18T08:38:07;6.33;;;5.07;;
7013;SDS011;3547;50.774;12.918;2023-11-18T08:40:33;6.03;;;3.90;;
7013;SDS011;3547;50.774;12.918;2023-11-18T08:43:01;6.97;;;4.73;;
7013;SDS011;3547;50.774;12.918;2023-11-18T08:45:30;5.87;;;4.83;;
7013;SDS011;3547;50.774;12.918;2023-11-18T08:47:59;8.77;;;5.27;;
7013;SDS011;3547;50.774;12.918;2023-11-18T08:50:33;7.77;;;4.37;;
7013;SDS011;3547;50.774;12.918;2023-11-18T08:53:00;7.73;;;4.67;;
7013;SDS011;3547;50.774;12.918;2023-11-18T08:55:30;6.93;;;4.77;;
7013;SDS011;3547;50.774;12.918;2023-11-18T08:58:12;8.03;;;5.60;;
7013;SDS011;3547;50.774;12.918;2023-11-18T09:00:44;8.33;;;5.43;;
7013;SDS011;3547;50.774;12.918;2023-11-18T09:03:23;7.60;;;5.20;;
7013;SDS011;3547;50.774;12.918;2023-11-18T09:05:54;7.37;;;5.33;;
7013;SDS011;3547;50.774;12.918;2023-11-18T09:08:28;8.20;;;5.10;;
7013;SDS011;3547;50.774;12.918;2023-11-18T09:11:04;9.03;;;4.57;;
7013;SDS011;3547;50.774;12.918;2023-11-18T09:13:32;7.17;;;5.50;;
7013;SDS011;3547;50.774;12.918;2023-11-18T09:16:03;6.33;;;4.67;;
7013;SDS011;3547;50.774;12.918;2023-11-18T09:18:35;8.87;;;5.40;;
7013;SDS011;3547;50.774;12.918;2023-11-18T09:21:02;8.20;;;4.80;;
7013;SDS011;3547;50.774;12.918;2023-11-18T09:23:30;6.83;;;4.63;;
7013;SDS011;3547;50.774;12.918;2023-11-18T09:25:57;9.90;;;4.73;;
7013;SDS011;3547;50.774;12.918;2023-11-18T09:28:24;8.57;;;5.37;;
7013;SDS011;3547;50.774;12.918;2023-11-18T09:30:55;6.60;;;4.87;;
7013;SDS011;3547;50.774;12.918;2023-11-18T09:33:26;7.93;;;5.93;;
7013;SDS011;3547;50.774;12.918;2023-11-18T09:35:58;7.40;;;5.40;;
7013;SDS011;3547;50.774;12.918;2023-11-18T09:38:29;7.87;;;4.70;;
7013;SDS011;3547;50.774;12.918;2023-11-18T09:40:59;6.43;;;4.80;;
7013;SDS011;3547;50.774;12.918;2023-11-18T09:43:31;8.53;;;4.87;;
7013;SDS011;3547;50.774;12.918;2023-11-18T09:46:05;8.23;;;5.63;;
7013;SDS011;3547;50.774;12.918;2023-11-18T09:51:43;6.53;;;4.80;;
7013;SDS011;3547;50.774;12.918;2023-11-18T09:54:18;8.03;;;5.47;;
7013;SDS011;3547;50.774;12.918;2023-11-18T09:57:00;7.37;;;5.60;;
7013;SDS011;3547;50.774;12.918;2023-11-18T10:02:10;8.00;;;5.37;;
7013;SDS011;3547;50.774;12.918;2023-11-18T10:04:37;8.57;;;5.30;;
7013;SDS011;3547;50.774;12.918;2023-11-18T10:07:05;8.13;;;5.70;;
7013;SDS011;3547;50.774;12.918;2023-11-18T10:09:36;9.07;;;6.07;;
7013;SDS011;3547;50.774;12.918;2023-11-18T10:12:04;5.93;;;4.90;;
7013;SDS011;3547;50.774;12.918;2023-11-18T10:14:33;7.77;;;6.07;;
7013;SDS011;3547;50.774;12.918;2023-11-18T10:17:04;17.77;;;8.73;;
7013;SDS011;3547;50.774;12.918;2023-11-18T10:22:38;10.53;;;6.00;;
7013;SDS011;3547;50.774;12.918;2023-11-18T10:25:06;9.23;;;6.50;;
7013;SDS011;3547;50.774;12.918;2023-11-18T10:27:32;9.70;;;6.40;;
7013;SDS011;3547;50.774;12.918;2023-11-18T10:30:04;12.47;;;6.90;;
7013;SDS011;3547;50.774;12.918;2023-11-18T10:32:32;17.93;;;8.27;;
7013;SDS011;3547;50.774;12.918;2023-11-18T10:35:01;21.57;;;10.27;;
7013;SDS011;3547;50.774;12.918;2023-11-18T10:37:30;9.87;;;6.77;;
7013;SDS011;3547;50.774;12.918;2023-11-18T10:39:57;45.87;;;17.20;;
7013;SDS011;3547;50.774;12.918;2023-11-18T10:42:26;14.53;;;8.07;;
7013;SDS011;3547;50.774;12.918;2023-11-18T10:44:59;11.53;;;6.90;;
7013;SDS011;3547;50.774;12.918;2023-11-18T10:47:32;12.70;;;7.33;;
7013;SDS011;3547;50.774;12.918;2023-11-18T10:50:00;19.87;;;10.03;;
7013;SDS011;3547;50.774;12.918;2023-11-18T10:52:27;11.83;;;7.07;;
7013;SDS011;3547;50.774;12.918;2023-11-18T10:55:00;10.03;;;6.90;;
7013;SDS011;3547;50.774;12.918;2023-11-18T10:57:32;7.67;;;5.47;;
7013;SDS011;3547;50.774;12.918;2023-11-18T11:00:05;6.77;;;5.23;;
7013;SDS011;3547;50.774;12.918;2023-11-18T11:02:44;8.93;;;5.63;;
7013;SDS011;3547;50.774;12.918;2023-11-18T11:05:28;8.20;;;6.03;;
7013;SDS011;3547;50.774;12.918;2023-11-18T11:07:58;7.40;;;5.80;;
7013;SDS011;3547;50.774;12.918;2023-11-18T11:10:25;8.23;;;6.00;;
7013;SDS011;3547;50.774;12.918;2023-11-18T11:12:54;11.67;;;6.30;;
7013;SDS011;3547;50.774;12.918;2023-11-18T11:15:30;8.47;;;5.30;;
7013;SDS011;3547;50.774;12.918;2023-11-18T11:18:03;10.03;;;6.63;;
7013;SDS011;3547;50.774;12.918;2023-11-18T11:20:47;6.80;;;4.97;;
7013;SDS011;3547;50.774;12.918;2023-11-18T11:35:38;7.10;;;5.03;;
7013;SDS011;3547;50.774;12.918;2023-11-18T11:38:18;14.67;;;5.00;;
7013;SDS011;3547;50.774;12.918;2023-11-18T11:43:53;7.43;;;4.83;;
7013;SDS011;3547;50.774;12.918;2023-11-18T11:46:24;5.80;;;4.47;;
7013;SDS011;3547;50.774;12.918;2023-11-18T11:49:00;7.33;;;4.87;;
7013;SDS011;3547;50.774;12.918;2023-11-18T11:52:15;6.47;;;4.47;;
7013;SDS011;3547;50.774;12.918;2023-11-18T11:55:00;6.93;;;4.27;;
7013;SDS011;3547;50.774;12.918;2023-11-18T11:57:51;5.53;;;4.40;;
7013;SDS011;3547;50.774;12.918;2023-11-18T12:00:19;5.30;;;4.37;;
7013;SDS011;3547;50.774;12.918;2023-11-18T12:02:51;6.67;;;4.43;;
7013;SDS011;3547;50.774;12.918;2023-11-18T12:05:20;5.80;;;4.53;;
7013;SDS011;3547;50.774;12.918;2023-11-18T12:07:51;7.07;;;5.73;;
7013;SDS011;3547;50.774;12.918;2023-11-18T12:10:20;5.03;;;3.20;;
7013;SDS011;3547;50.774;12.918;2023-11-18T12:13:06;13.43;;;8.97;;
7013;SDS011;3547;50.774;12.918;2023-11-18T12:15:48;6.07;;;4.53;;
7013;SDS011;3547;50.774;12.918;2023-11-18T12:18:20;4.47;;;3.20;;
7013;SDS011;3547;50.774;12.918;2023-11-18T12:20:47;5.50;;;4.23;;
7013;SDS011;3547;50.774;12.918;2023-11-18T12:23:14;5.37;;;3.73;;
7013;SDS011;3547;50.774;12.918;2023-11-18T12:25:41;3.93;;;3.23;;
7013;SDS011;3547;50.774;12.918;2023-11-18T12:28:16;4.73;;;4.17;;
7013;SDS011;3547;50.774;12.918;2023-11-18T12:30:52;6.40;;;3.30;;
7013;SDS011;3547;50.774;12.918;2023-11-18T12:33:23;5.33;;;3.50;;
7013;SDS011;3547;50.774;12.918;2023-11-18T12:41:20;7.23;;;5.33;;
7013;SDS011;3547;50.774;12.918;2023-11-18T12:44:00;5.87;;;3.90;;
7013;SDS011;3547;50.774;12.918;2023-11-18T12:49:16;6.50;;;3.70;;
7013;SDS011;3547;50.774;12.918;2023-11-18T12:51:45;4.53;;;3.57;;
7013;SDS011;3547;50.774;12.918;2023-11-18T12:54:11;3.73;;;2.83;;
7013;SDS011;3547;50.774;12.918;2023-11-18T12:56:38;5.87;;;3.27;;
7013;SDS011;3547;50.774;12.918;2023-11-18T12:59:05;3.87;;;3.00;;
7013;SDS011;3547;50.774;12.918;2023-11-18T13:01:34;4.97;;;3.70;;
7013;SDS011;3547;50.774;12.918;2023-11-18T13:04:04;4.90;;;3.50;;
7013;SDS011;3547;50.774;12.918;2023-11-18T13:06:30;8.27;;;5.03;;
7013;SDS011;3547;50.774;12.918;2023-11-18T13:08:57;6.00;;;4.47;;
7013;SDS011;3547;50.774;12.918;2023-11-18T13:11:24;4.40;;;3.50;;
7013;SDS011;3547;50.774;12.918;2023-11-18T13:13:51;5.90;;;3.07;;
7013;SDS011;3547;50.774;12.918;2023-11-18T13:16:17;5.23;;;3.20;;
7013;SDS011;3547;50.774;12.918;2023-11-18T13:18:44;3.73;;;3.03;;
7013;SDS011;3547;50.774;12.918;2023-11-18T13:21:13;4.40;;;2.90;;
7013;SDS011;3547;50.774;12.918;2023-11-18T13:23:41;3.27;;;2.77;;
7013;SDS011;3547;50.774;12.918;2023-11-18T13:26:11;5.20;;;3.70;;
7013;SDS011;3547;50.774;12.918;2023-11-18T13:28:37;4.33;;;3.40;;
7013;SDS011;3547;50.774;12.918;2023-11-18T13:31:05;4.67;;;3.17;;
7013;SDS011;3547;50.774;12.918;2023-11-18T13:33:51;4.97;;;3.30;;
7013;SDS011;3547;50.774;12.918;2023-11-18T13:36:17;3.87;;;3.43;;
7013;SDS011;3547;50.774;12.918;2023-11-18T13:38:43;5.43;;;3.50;;
7013;SDS011;3547;50.774;12.918;2023-11-18T13:41:17;9.00;;;3.67;;
7013;SDS011;3547;50.774;12.918;2023-11-18T13:43:54;5.03;;;2.90;;
7013;SDS011;3547;50.774;12.918;2023-11-18T13:46:21;4.40;;;2.57;;
7013;SDS011;3547;50.774;12.918;2023-11-18T13:48:47;3.00;;;2.30;;
7013;SDS011;3547;50.774;12.918;2023-11-18T13:51:17;3.93;;;2.70;;
7013;SDS011;3547;50.774;12.918;2023-11-18T13:53:45;3.53;;;2.87;;
7013;SDS011;3547;50.774;12.918;2023-11-18T13:56:13;3.07;;;2.77;;
7013;SDS011;3547;50.774;12.918;2023-11-18T13:58:44;3.23;;;2.50;;
7013;SDS011;3547;50.774;12.918;2023-11-18T14:01:11;3.67;;;2.90;;
7013;SDS011;3547;50.774;12.918;2023-11-18T14:03:40;3.30;;;2.87;;
7013;SDS011;3547;50.774;12.918;2023-11-18T14:06:09;3.57;;;2.90;;
7013;SDS011;3547;50.774;12.918;2023-11-18T14:08:36;5.20;;;3.57;;
7013;SDS011;3547;50.774;12.918;2023-11-18T14:11:03;2.57;;;2.37;;
7013;SDS011;3547;50.774;12.918;2023-11-18T14:13:30;4.23;;;2.07;;
7013;SDS011;3547;50.774;12.918;2023-11-18T14:16:03;2.60;;;2.27;;
7013;SDS011;3547;50.774;12.918;2023-11-18T14:18:30;3.40;;;2.50;;
7013;SDS011;3547;50.774;12.918;2023-11-18T14:23:59;3.97;;;2.77;;
7013;SDS011;3547;50.774;12.918;2023-11-18T14:26:27;8.47;;;4.70;;
7013;SDS011;3547;50.774;12.918;2023-11-18T14:28:54;4.30;;;3.20;;
7013;SDS011;3547;50.774;12.918;2023-11-18T14:31:21;3.23;;;2.90;;
7013;SDS011;3547;50.774;12.918;2023-11-18T14:33:50;6.43;;;3.57;;
7013;SDS011;3547;50.774;12.918;2023-11-18T14:36:17;5.10;;;4.07;;
7013;SDS011;3547;50.774;12.918;2023-11-18T14:38:44;4.50;;;3.70;;
7013;SDS011;3547;50.774;12.918;2023-11-18T14:41:12;3.80;;;3.10;;
7013;SDS011;3547;50.774;12.918;2023-11-18T14:43:38;3.17;;;2.90;;
7013;SDS011;3547;50.774;12.918;2023-11-18T14:46:04;3.20;;;2.80;;
7013;SDS011;3547;50.774;12.918;2023-11-18T14:48:30;4.67;;;3.10;;
7013;SDS011;3547;50.774;12.918;2023-11-18T14:50:57;4.77;;;2.90;;
7013;SDS011;3547;50.774;12.918;2023-11-18T14:53:23;5.30;;;4.00;;
7013;SDS011;3547;50.774;12.918;2023-11-18T14:55:49;5.07;;;3.87;;
7013;SDS011;3547;50.774;12.918;2023-11-18T14:58:16;6.00;;;3.57;;
7013;SDS011;3547;50.774;12.918;2023-11-18T15:00:42;3.13;;;2.43;;
7013;SDS011;3547;50.774;12.918;2023-11-18T15:03:08;4.20;;;2.80;;
7013;SDS011;3547;50.774;12.918;2023-11-18T15:05:35;4.47;;;3.10;;
7013;SDS011;3547;50.774;12.918;2023-11-18T15:08:02;12.97;;;6.13;;
7013;SDS011;3547;50.774;12.918;2023-11-18T15:10:29;6.07;;;4.77;;
7013;SDS011;3547;50.774;12.918;2023-11-18T15:12:56;6.27;;;4.67;;
7013;SDS011;3547;50.774;12.918;2023-11-18T15:15:29;6.53;;;4.77;;
7013;SDS011;3547;50.774;12.918;2023-11-18T15:18:00;6.40;;;4.93;;
7013;SDS011;3547;50.774;12.918;2023-11-18T15:20:34;5.20;;;4.47;;
7013;SDS011;3547;50.774;12.918;2023-11-18T15:23:01;6.03;;;4.07;;
7013;SDS011;3547;50.774;12.918;2023-11-18T15:25:27;5.40;;;3.60;;
7013;SDS011;3547;50.774;12.918;2023-11-18T15:27:54;5.07;;;3.93;;
7013;SDS011;3547;50.774;12.918;2023-11-18T15:33:44;4.20;;;3.50;;
7013;SDS011;3547;50.774;12.918;2023-11-18T15:36:13;3.13;;;2.53;;
7013;SDS011;3547;50.774;12.918;2023-11-18T15:38:40;3.30;;;2.50;;
7013;SDS011;3547;50.774;12.918;2023-11-18T15:41:06;4.23;;;3.30;;
7013;SDS011;3547;50.774;12.918;2023-11-18T15:43:33;5.43;;;4.07;;
7013;SDS011;3547;50.774;12.918;2023-11-18T15:45:59;7.73;;;5.37;;
7013;SDS011;3547;50.774;12.918;2023-11-18T15:48:25;6.67;;;3.43;;
7013;SDS011;3547;50.774;12.918;2023-11-18T15:50:54;3.70;;;3.17;;
7013;SDS011;3547;50.774;12.918;2023-11-18T15:53:21;4.80;;;3.33;;
7013;SDS011;3547;50.774;12.918;2023-11-18T15:55:48;6.97;;;4.13;;